sensor_id;sensor_type;location;lat;lon;timestamp;P1;durP1;ratioP1;P2;durP2;ratioP2
43014;SDS011;28637;50.554;7.032;2023-05-24T00:01:02;7.93;;;2.70;;
43014;SDS011;28637;50.554;7.032;2023-05-24T00:06:04;12.38;;;3.22;;
43014;SDS011;28637;50.554;7.032;2023-05-24T00:11:06;8.15;;;2.90;;
43014;SDS011;28637;50.554;7.032;2023-05-24T00:16:06;10.77;;;3.00;;
43014;SDS011;28637;50.554;7.032;2023-05-24T00:21:07;9.80;;;3.20;;
43014;SDS011;28637;50.554;7.032;2023-05-24T00:26:08;9.03;;;3.20;;
43014;SDS011;28637;50.554;7.032;2023-05-24T00:31:09;7.90;;;2.90;;
43014;SDS011;28637;50.554;7.032;2023-05-24T00:36:09;10.02;;;3.10;;
43014;SDS011;28637;50.554;7.032;2023-05-24T00:41:10;8.20;;;2.83;;
43014;SDS011;28637;50.554;7.032;2023-05-24T00:46:18;8.73;;;3.10;;
43014;SDS011;28637;50.554;7.032;2023-05-24T00:51:29;12.05;;;4.15;;
43014;SDS011;28637;50.554;7.032;2023-05-24T00:56:31;14.73;;;3.30;;
43014;SDS011;28637;50.554;7.032;2023-05-24T01:01:32;7.97;;;2.70;;
43014;SDS011;28637;50.554;7.032;2023-05-24T01:06:36;7.87;;;3.13;;
43014;SDS011;28637;50.554;7.032;2023-05-24T01:27:47;9.30;;;2.60;;
43014;SDS011;28637;50.554;7.032;2023-05-24T01:32:49;9.50;;;3.03;;
43014;SDS011;28637;50.554;7.032;2023-05-24T01:37:50;12.43;;;3.10;;
43014;SDS011;28637;50.554;7.032;2023-05-24T01:42:53;6.37;;;2.63;;
43014;SDS011;28637;50.554;7.032;2023-05-24T01:53:18;9.55;;;2.70;;
43014;SDS011;28637;50.554;7.032;2023-05-24T01:58:20;9.00;;;2.63;;
43014;SDS011;28637;50.554;7.032;2023-05-24T02:03:22;8.15;;;2.60;;
43014;SDS011;28637;50.554;7.032;2023-05-24T02:08:23;11.30;;;2.83;;
43014;SDS011;28637;50.554;7.032;2023-05-24T02:13:23;10.73;;;2.50;;
43014;SDS011;28637;50.554;7.032;2023-05-24T02:18:24;10.80;;;2.95;;
43014;SDS011;28637;50.554;7.032;2023-05-24T02:23:25;15.82;;;2.85;;
43014;SDS011;28637;50.554;7.032;2023-05-24T02:28:26;8.32;;;2.38;;
43014;SDS011;28637;50.554;7.032;2023-05-24T02:33:28;8.85;;;3.40;;
43014;SDS011;28637;50.554;7.032;2023-05-24T02:38:29;10.80;;;2.95;;
43014;SDS011;28637;50.554;7.032;2023-05-24T02:43:30;8.02;;;2.63;;
43014;SDS011;28637;50.554;7.032;2023-05-24T02:48:31;11.25;;;2.63;;
43014;SDS011;28637;50.554;7.032;2023-05-24T02:53:32;6.40;;;2.50;;
43014;SDS011;28637;50.554;7.032;2023-05-24T02:58:32;9.63;;;2.40;;
43014;SDS011;28637;50.554;7.032;2023-05-24T03:03:33;6.43;;;2.20;;
43014;SDS011;28637;50.554;7.032;2023-05-24T03:08:34;5.10;;;2.08;;
43014;SDS011;28637;50.554;7.032;2023-05-24T03:13:36;6.90;;;2.10;;
43014;SDS011;28637;50.554;7.032;2023-05-24T03:18:37;5.90;;;2.65;;
43014;SDS011;28637;50.554;7.032;2023-05-24T03:23:38;6.25;;;2.30;;
43014;SDS011;28637;50.554;7.032;2023-05-24T03:28:38;6.83;;;2.07;;
43014;SDS011;28637;50.554;7.032;2023-05-24T03:33:39;7.43;;;2.40;;
43014;SDS011;28637;50.554;7.032;2023-05-24T03:38:40;5.25;;;2.40;;
43014;SDS011;28637;50.554;7.032;2023-05-24T03:43:40;6.75;;;2.10;;
43014;SDS011;28637;50.554;7.032;2023-05-24T03:48:41;7.55;;;2.17;;
43014;SDS011;28637;50.554;7.032;2023-05-24T03:53:42;7.65;;;2.40;;
43014;SDS011;28637;50.554;7.032;2023-05-24T03:58:42;7.28;;;2.55;;
43014;SDS011;28637;50.554;7.032;2023-05-24T04:03:43;7.93;;;2.40;;
43014;SDS011;28637;50.554;7.032;2023-05-24T04:08:44;5.95;;;2.35;;
43014;SDS011;28637;50.554;7.032;2023-05-24T04:13:46;7.28;;;2.65;;
43014;SDS011;28637;50.554;7.032;2023-05-24T04:18:47;7.65;;;2.53;;
43014;SDS011;28637;50.554;7.032;2023-05-24T04:23:47;10.45;;;2.53;;
43014;SDS011;28637;50.554;7.032;2023-05-24T04:28:48;5.45;;;2.40;;
43014;SDS011;28637;50.554;7.032;2023-05-24T04:33:49;8.32;;;3.15;;
43014;SDS011;28637;50.554;7.032;2023-05-24T04:38:49;11.20;;;3.08;;
43014;SDS011;28637;50.554;7.032;2023-05-24T04:43:52;7.80;;;2.65;;
43014;SDS011;28637;50.554;7.032;2023-05-24T04:48:53;9.68;;;2.70;;
43014;SDS011;28637;50.554;7.032;2023-05-24T04:53:54;8.77;;;2.77;;
43014;SDS011;28637;50.554;7.032;2023-05-24T04:58:54;9.05;;;3.03;;
43014;SDS011;28637;50.554;7.032;2023-05-24T05:03:55;7.70;;;3.10;;
43014;SDS011;28637;50.554;7.032;2023-05-24T05:08:55;10.77;;;3.72;;
43014;SDS011;28637;50.554;7.032;2023-05-24T05:13:56;12.05;;;3.65;;
43014;SDS011;28637;50.554;7.032;2023-05-24T05:18:57;15.13;;;3.63;;
43014;SDS011;28637;50.554;7.032;2023-05-24T05:23:58;11.88;;;3.30;;
43014;SDS011;28637;50.554;7.032;2023-05-24T05:28:59;17.33;;;3.58;;
43014;SDS011;28637;50.554;7.032;2023-05-24T05:34:00;22.95;;;4.03;;
43014;SDS011;28637;50.554;7.032;2023-05-24T05:39:00;11.27;;;3.37;;
43014;SDS011;28637;50.554;7.032;2023-05-24T05:44:01;10.37;;;3.17;;
43014;SDS011;28637;50.554;7.032;2023-05-24T05:49:02;11.98;;;3.53;;
43014;SDS011;28637;50.554;7.032;2023-05-24T05:54:02;13.05;;;3.35;;
43014;SDS011;28637;50.554;7.032;2023-05-24T05:59:03;10.07;;;3.13;;
43014;SDS011;28637;50.554;7.032;2023-05-24T06:04:04;12.77;;;3.37;;
43014;SDS011;28637;50.554;7.032;2023-05-24T06:09:05;12.47;;;3.03;;
43014;SDS011;28637;50.554;7.032;2023-05-24T06:14:06;14.43;;;3.35;;
43014;SDS011;28637;50.554;7.032;2023-05-24T06:19:07;16.00;;;3.90;;
43014;SDS011;28637;50.554;7.032;2023-05-24T06:24:07;15.37;;;3.77;;
43014;SDS011;28637;50.554;7.032;2023-05-24T06:29:08;13.87;;;4.10;;
43014;SDS011;28637;50.554;7.032;2023-05-24T06:34:09;11.27;;;3.70;;
43014;SDS011;28637;50.554;7.032;2023-05-24T06:39:10;25.53;;;4.63;;
43014;SDS011;28637;50.554;7.032;2023-05-24T06:44:12;14.27;;;4.50;;
43014;SDS011;28637;50.554;7.032;2023-05-24T06:49:12;18.53;;;6.43;;
43014;SDS011;28637;50.554;7.032;2023-05-24T06:54:13;17.83;;;6.47;;
43014;SDS011;28637;50.554;7.032;2023-05-24T06:59:14;21.90;;;6.63;;
43014;SDS011;28637;50.554;7.032;2023-05-24T07:04:15;19.70;;;5.67;;
43014;SDS011;28637;50.554;7.032;2023-05-24T07:09:15;22.73;;;5.80;;
43014;SDS011;28637;50.554;7.032;2023-05-24T07:14:16;22.47;;;5.80;;
43014;SDS011;28637;50.554;7.032;2023-05-24T07:19:17;19.90;;;6.03;;
43014;SDS011;28637;50.554;7.032;2023-05-24T07:24:19;22.90;;;6.00;;
43014;SDS011;28637;50.554;7.032;2023-05-24T07:29:20;13.95;;;5.95;;
43014;SDS011;28637;50.554;7.032;2023-05-24T07:34:21;16.83;;;6.30;;
43014;SDS011;28637;50.554;7.032;2023-05-24T07:39:23;18.08;;;6.95;;
43014;SDS011;28637;50.554;7.032;2023-05-24T07:44:24;21.70;;;6.35;;
43014;SDS011;28637;50.554;7.032;2023-05-24T07:49:25;17.90;;;5.40;;
43014;SDS011;28637;50.554;7.032;2023-05-24T07:54:25;13.00;;;5.07;;
43014;SDS011;28637;50.554;7.032;2023-05-24T07:59:26;19.40;;;5.53;;
43014;SDS011;28637;50.554;7.032;2023-05-24T08:09:29;18.25;;;4.60;;
43014;SDS011;28637;50.554;7.032;2023-05-24T08:14:32;14.18;;;4.82;;
43014;SDS011;28637;50.554;7.032;2023-05-24T08:19:33;15.90;;;5.13;;
43014;SDS011;28637;50.554;7.032;2023-05-24T08:24:34;18.42;;;5.57;;
43014;SDS011;28637;50.554;7.032;2023-05-24T08:29:36;17.93;;;5.43;;
43014;SDS011;28637;50.554;7.032;2023-05-24T08:34:37;16.67;;;4.97;;
43014;SDS011;28637;50.554;7.032;2023-05-24T08:39:38;15.87;;;4.50;;
43014;SDS011;28637;50.554;7.032;2023-05-24T08:44:40;13.93;;;4.10;;
43014;SDS011;28637;50.554;7.032;2023-05-24T08:49:52;17.27;;;4.43;;
43014;SDS011;28637;50.554;7.032;2023-05-24T08:54:53;15.10;;;4.30;;
43014;SDS011;28637;50.554;7.032;2023-05-24T08:59:55;13.15;;;4.20;;
43014;SDS011;28637;50.554;7.032;2023-05-24T09:04:56;11.17;;;3.83;;
43014;SDS011;28637;50.554;7.032;2023-05-24T09:10:05;10.82;;;3.63;;
43014;SDS011;28637;50.554;7.032;2023-05-24T09:15:07;11.43;;;3.67;;
43014;SDS011;28637;50.554;7.032;2023-05-24T09:20:08;13.70;;;3.60;;
43014;SDS011;28637;50.554;7.032;2023-05-24T09:25:11;12.73;;;3.35;;
43014;SDS011;28637;50.554;7.032;2023-05-24T09:30:13;8.80;;;3.10;;
43014;SDS011;28637;50.554;7.032;2023-05-24T09:35:14;12.17;;;3.80;;
43014;SDS011;28637;50.554;7.032;2023-05-24T09:40:18;11.40;;;3.87;;
43014;SDS011;28637;50.554;7.032;2023-05-24T09:45:19;12.00;;;3.28;;
43014;SDS011;28637;50.554;7.032;2023-05-24T09:50:20;14.17;;;3.90;;
43014;SDS011;28637;50.554;7.032;2023-05-24T09:55:21;16.80;;;3.53;;
43014;SDS011;28637;50.554;7.032;2023-05-24T10:00:22;11.67;;;3.70;;
43014;SDS011;28637;50.554;7.032;2023-05-24T10:05:23;12.75;;;4.25;;
43014;SDS011;28637;50.554;7.032;2023-05-24T10:10:28;12.47;;;4.10;;
43014;SDS011;28637;50.554;7.032;2023-05-24T10:15:30;10.90;;;3.78;;
43014;SDS011;28637;50.554;7.032;2023-05-24T10:20:30;15.13;;;4.77;;
43014;SDS011;28637;50.554;7.032;2023-05-24T10:25:32;17.30;;;5.80;;
43014;SDS011;28637;50.554;7.032;2023-05-24T10:35:52;13.13;;;4.55;;
43014;SDS011;28637;50.554;7.032;2023-05-24T10:40:53;13.98;;;4.85;;
43014;SDS011;28637;50.554;7.032;2023-05-24T10:45:54;11.03;;;5.40;;
43014;SDS011;28637;50.554;7.032;2023-05-24T10:50:55;17.50;;;5.90;;
43014;SDS011;28637;50.554;7.032;2023-05-24T11:05:58;14.52;;;6.57;;
43014;SDS011;28637;50.554;7.032;2023-05-24T11:11:06;12.65;;;5.85;;
43014;SDS011;28637;50.554;7.032;2023-05-24T11:16:14;17.08;;;7.32;;
43014;SDS011;28637;50.554;7.032;2023-05-24T11:21:36;21.85;;;8.35;;
43014;SDS011;28637;50.554;7.032;2023-05-24T11:26:37;17.85;;;9.13;;
43014;SDS011;28637;50.554;7.032;2023-05-24T11:31:38;21.88;;;10.15;;
43014;SDS011;28637;50.554;7.032;2023-05-24T11:36:46;18.67;;;9.55;;
43014;SDS011;28637;50.554;7.032;2023-05-24T11:41:47;19.25;;;10.32;;
43014;SDS011;28637;50.554;7.032;2023-05-24T11:46:48;22.93;;;10.70;;
43014;SDS011;28637;50.554;7.032;2023-05-24T11:51:49;20.60;;;9.70;;
43014;SDS011;28637;50.554;7.032;2023-05-24T11:56:53;20.73;;;9.98;;
43014;SDS011;28637;50.554;7.032;2023-05-24T12:01:58;20.20;;;9.83;;
43014;SDS011;28637;50.554;7.032;2023-05-24T12:06:59;18.17;;;7.10;;
43014;SDS011;28637;50.554;7.032;2023-05-24T12:12:00;17.23;;;6.70;;
43014;SDS011;28637;50.554;7.032;2023-05-24T12:17:01;18.23;;;7.28;;
43014;SDS011;28637;50.554;7.032;2023-05-24T12:22:05;19.70;;;7.53;;
43014;SDS011;28637;50.554;7.032;2023-05-24T12:27:06;16.55;;;8.02;;
43014;SDS011;28637;50.554;7.032;2023-05-24T12:32:08;18.20;;;8.25;;
43014;SDS011;28637;50.554;7.032;2023-05-24T12:37:13;16.80;;;8.10;;
43014;SDS011;28637;50.554;7.032;2023-05-24T12:42:14;17.85;;;8.80;;
43014;SDS011;28637;50.554;7.032;2023-05-24T12:47:15;22.07;;;8.30;;
43014;SDS011;28637;50.554;7.032;2023-05-24T12:52:15;17.53;;;7.57;;
43014;SDS011;28637;50.554;7.032;2023-05-24T12:57:16;15.27;;;6.80;;
43014;SDS011;28637;50.554;7.032;2023-05-24T13:02:17;12.73;;;6.77;;
43014;SDS011;28637;50.554;7.032;2023-05-24T13:12:19;11.93;;;5.43;;
43014;SDS011;28637;50.554;7.032;2023-05-24T13:17:20;11.93;;;5.53;;
43014;SDS011;28637;50.554;7.032;2023-05-24T13:22:21;16.30;;;5.70;;
43014;SDS011;28637;50.554;7.032;2023-05-24T13:27:21;12.97;;;5.67;;
43014;SDS011;28637;50.554;7.032;2023-05-24T13:32:22;17.80;;;6.40;;
43014;SDS011;28637;50.554;7.032;2023-05-24T13:37:23;16.33;;;5.90;;
43014;SDS011;28637;50.554;7.032;2023-05-24T13:42:24;16.53;;;6.27;;
43014;SDS011;28637;50.554;7.032;2023-05-24T13:47:24;15.37;;;6.33;;
43014;SDS011;28637;50.554;7.032;2023-05-24T13:52:25;13.00;;;6.10;;
43014;SDS011;28637;50.554;7.032;2023-05-24T13:57:26;14.70;;;6.37;;
43014;SDS011;28637;50.554;7.032;2023-05-24T14:02:27;15.48;;;5.90;;
43014;SDS011;28637;50.554;7.032;2023-05-24T14:07:27;13.07;;;6.13;;
43014;SDS011;28637;50.554;7.032;2023-05-24T14:12:28;15.30;;;5.97;;
43014;SDS011;28637;50.554;7.032;2023-05-24T14:17:30;14.57;;;5.97;;
43014;SDS011;28637;50.554;7.032;2023-05-24T14:22:31;14.07;;;6.50;;
43014;SDS011;28637;50.554;7.032;2023-05-24T14:27:31;14.93;;;6.73;;
43014;SDS011;28637;50.554;7.032;2023-05-24T14:32:32;15.60;;;5.60;;
43014;SDS011;28637;50.554;7.032;2023-05-24T14:37:33;13.33;;;6.33;;
43014;SDS011;28637;50.554;7.032;2023-05-24T14:42:33;14.00;;;5.63;;
43014;SDS011;28637;50.554;7.032;2023-05-24T14:47:34;14.47;;;5.50;;
43014;SDS011;28637;50.554;7.032;2023-05-24T14:52:35;14.17;;;5.03;;
43014;SDS011;28637;50.554;7.032;2023-05-24T14:57:35;12.50;;;4.77;;
43014;SDS011;28637;50.554;7.032;2023-05-24T15:02:36;14.63;;;4.77;;
43014;SDS011;28637;50.554;7.032;2023-05-24T15:07:37;18.33;;;7.27;;
43014;SDS011;28637;50.554;7.032;2023-05-24T15:12:37;15.10;;;6.00;;
43014;SDS011;28637;50.554;7.032;2023-05-24T15:17:38;9.60;;;4.63;;
43014;SDS011;28637;50.554;7.032;2023-05-24T15:22:39;14.03;;;4.87;;
43014;SDS011;28637;50.554;7.032;2023-05-24T15:27:39;12.47;;;4.40;;
43014;SDS011;28637;50.554;7.032;2023-05-24T15:32:40;19.30;;;4.20;;
43014;SDS011;28637;50.554;7.032;2023-05-24T15:37:40;10.20;;;3.70;;
43014;SDS011;28637;50.554;7.032;2023-05-24T15:42:41;11.03;;;3.77;;
43014;SDS011;28637;50.554;7.032;2023-05-24T15:47:42;13.83;;;4.30;;
43014;SDS011;28637;50.554;7.032;2023-05-24T15:52:43;12.70;;;3.80;;
43014;SDS011;28637;50.554;7.032;2023-05-24T15:57:43;12.03;;;3.80;;
43014;SDS011;28637;50.554;7.032;2023-05-24T16:02:44;11.27;;;3.70;;
43014;SDS011;28637;50.554;7.032;2023-05-24T16:07:44;9.37;;;3.43;;
43014;SDS011;28637;50.554;7.032;2023-05-24T16:12:45;14.53;;;3.63;;
43014;SDS011;28637;50.554;7.032;2023-05-24T16:17:46;10.63;;;3.53;;
43014;SDS011;28637;50.554;7.032;2023-05-24T16:22:46;10.70;;;3.70;;
43014;SDS011;28637;50.554;7.032;2023-05-24T16:27:50;10.52;;;4.10;;
43014;SDS011;28637;50.554;7.032;2023-05-24T16:32:51;8.18;;;3.20;;
43014;SDS011;28637;50.554;7.032;2023-05-24T16:37:52;11.60;;;3.60;;
43014;SDS011;28637;50.554;7.032;2023-05-24T16:42:54;15.25;;;3.85;;
43014;SDS011;28637;50.554;7.032;2023-05-24T16:47:55;12.03;;;4.43;;
43014;SDS011;28637;50.554;7.032;2023-05-24T16:52:56;11.63;;;3.83;;
43014;SDS011;28637;50.554;7.032;2023-05-24T16:57:56;11.60;;;4.07;;
43014;SDS011;28637;50.554;7.032;2023-05-24T17:02:57;9.20;;;3.70;;
43014;SDS011;28637;50.554;7.032;2023-05-24T17:12:59;11.82;;;4.05;;
43014;SDS011;28637;50.554;7.032;2023-05-24T17:18:00;10.10;;;3.60;;
43014;SDS011;28637;50.554;7.032;2023-05-24T17:23:00;14.13;;;3.60;;
43014;SDS011;28637;50.554;7.032;2023-05-24T17:28:01;17.00;;;3.17;;
43014;SDS011;28637;50.554;7.032;2023-05-24T17:33:02;9.77;;;3.55;;
43014;SDS011;28637;50.554;7.032;2023-05-24T17:38:03;12.10;;;3.47;;
43014;SDS011;28637;50.554;7.032;2023-05-24T17:43:03;6.73;;;3.10;;
43014;SDS011;28637;50.554;7.032;2023-05-24T17:48:05;9.88;;;3.33;;
43014;SDS011;28637;50.554;7.032;2023-05-24T17:53:05;12.53;;;3.80;;
43014;SDS011;28637;50.554;7.032;2023-05-24T17:58:06;8.60;;;3.17;;
43014;SDS011;28637;50.554;7.032;2023-05-24T18:03:07;12.63;;;4.97;;
43014;SDS011;28637;50.554;7.032;2023-05-24T18:08:08;24.77;;;10.80;;
43014;SDS011;28637;50.554;7.032;2023-05-24T18:13:08;32.67;;;14.40;;
43014;SDS011;28637;50.554;7.032;2023-05-24T18:18:09;24.60;;;10.23;;
43014;SDS011;28637;50.554;7.032;2023-05-24T18:23:10;16.73;;;7.93;;
43014;SDS011;28637;50.554;7.032;2023-05-24T18:28:10;18.57;;;8.10;;
43014;SDS011;28637;50.554;7.032;2023-05-24T18:33:11;16.60;;;4.90;;
43014;SDS011;28637;50.554;7.032;2023-05-24T18:38:12;15.73;;;9.60;;
43014;SDS011;28637;50.554;7.032;2023-05-24T18:43:13;20.23;;;9.77;;
43014;SDS011;28637;50.554;7.032;2023-05-24T18:48:13;16.57;;;9.80;;
43014;SDS011;28637;50.554;7.032;2023-05-24T18:53:14;10.40;;;4.63;;
43014;SDS011;28637;50.554;7.032;2023-05-24T18:58:14;14.17;;;6.43;;
43014;SDS011;28637;50.554;7.032;2023-05-24T19:03:15;16.67;;;9.60;;
43014;SDS011;28637;50.554;7.032;2023-05-24T19:08:16;16.80;;;7.83;;
43014;SDS011;28637;50.554;7.032;2023-05-24T19:13:17;23.33;;;10.93;;
43014;SDS011;28637;50.554;7.032;2023-05-24T19:18:18;30.23;;;17.17;;
43014;SDS011;28637;50.554;7.032;2023-05-24T19:23:18;28.20;;;15.27;;
43014;SDS011;28637;50.554;7.032;2023-05-24T19:28:20;21.23;;;10.27;;
43014;SDS011;28637;50.554;7.032;2023-05-24T19:33:20;20.40;;;12.63;;
43014;SDS011;28637;50.554;7.032;2023-05-24T19:38:21;19.60;;;10.20;;
43014;SDS011;28637;50.554;7.032;2023-05-24T19:43:21;23.03;;;12.13;;
43014;SDS011;28637;50.554;7.032;2023-05-24T19:48:22;26.97;;;12.70;;
43014;SDS011;28637;50.554;7.032;2023-05-24T19:53:23;29.40;;;14.97;;
43014;SDS011;28637;50.554;7.032;2023-05-24T19:58:26;29.35;;;14.07;;
43014;SDS011;28637;50.554;7.032;2023-05-24T20:03:28;25.75;;;13.65;;
43014;SDS011;28637;50.554;7.032;2023-05-24T20:08:29;42.50;;;19.20;;
43014;SDS011;28637;50.554;7.032;2023-05-24T20:13:30;14.53;;;6.40;;
43014;SDS011;28637;50.554;7.032;2023-05-24T20:18:30;13.47;;;6.67;;
43014;SDS011;28637;50.554;7.032;2023-05-24T20:23:34;11.70;;;5.75;;
43014;SDS011;28637;50.554;7.032;2023-05-24T20:28:35;13.73;;;5.10;;
43014;SDS011;28637;50.554;7.032;2023-05-24T20:33:36;11.17;;;5.73;;
43014;SDS011;28637;50.554;7.032;2023-05-24T20:38:37;10.85;;;5.22;;
43014;SDS011;28637;50.554;7.032;2023-05-24T20:43:38;12.43;;;5.15;;
43014;SDS011;28637;50.554;7.032;2023-05-24T20:48:39;11.75;;;6.15;;
43014;SDS011;28637;50.554;7.032;2023-05-24T20:53:41;12.15;;;5.30;;
43014;SDS011;28637;50.554;7.032;2023-05-24T20:58:41;11.33;;;5.17;;
43014;SDS011;28637;50.554;7.032;2023-05-24T21:03:43;15.52;;;5.10;;
43014;SDS011;28637;50.554;7.032;2023-05-24T21:08:44;12.23;;;7.00;;
43014;SDS011;28637;50.554;7.032;2023-05-24T21:13:45;12.98;;;7.38;;
43014;SDS011;28637;50.554;7.032;2023-05-24T21:18:45;15.40;;;7.30;;
43014;SDS011;28637;50.554;7.032;2023-05-24T21:23:46;8.97;;;5.30;;
43014;SDS011;28637;50.554;7.032;2023-05-24T21:28:47;10.65;;;4.82;;
43014;SDS011;28637;50.554;7.032;2023-05-24T21:33:48;10.70;;;5.50;;
43014;SDS011;28637;50.554;7.032;2023-05-24T21:38:49;7.45;;;4.60;;
43014;SDS011;28637;50.554;7.032;2023-05-24T21:43:50;9.07;;;4.43;;
43014;SDS011;28637;50.554;7.032;2023-05-24T21:48:50;10.98;;;4.55;;
43014;SDS011;28637;50.554;7.032;2023-05-24T21:53:51;11.73;;;4.77;;
43014;SDS011;28637;50.554;7.032;2023-05-24T21:58:52;10.20;;;4.75;;
43014;SDS011;28637;50.554;7.032;2023-05-24T22:03:53;11.50;;;4.40;;
43014;SDS011;28637;50.554;7.032;2023-05-24T22:08:54;9.25;;;4.47;;
43014;SDS011;28637;50.554;7.032;2023-05-24T22:13:58;8.45;;;4.53;;
43014;SDS011;28637;50.554;7.032;2023-05-24T22:18:59;9.43;;;4.63;;
43014;SDS011;28637;50.554;7.032;2023-05-24T22:24:02;10.52;;;4.25;;
43014;SDS011;28637;50.554;7.032;2023-05-24T22:29:02;10.57;;;5.03;;
43014;SDS011;28637;50.554;7.032;2023-05-24T22:34:03;8.98;;;4.15;;
43014;SDS011;28637;50.554;7.032;2023-05-24T22:39:04;8.40;;;4.50;;
43014;SDS011;28637;50.554;7.032;2023-05-24T22:44:05;6.05;;;4.07;;
43014;SDS011;28637;50.554;7.032;2023-05-24T22:49:05;11.15;;;4.22;;
43014;SDS011;28637;50.554;7.032;2023-05-24T22:54:06;7.65;;;4.05;;
43014;SDS011;28637;50.554;7.032;2023-05-24T22:59:07;11.25;;;4.65;;
43014;SDS011;28637;50.554;7.032;2023-05-24T23:04:08;11.20;;;4.72;;
43014;SDS011;28637;50.554;7.032;2023-05-24T23:09:08;11.88;;;4.88;;
43014;SDS011;28637;50.554;7.032;2023-05-24T23:14:09;10.38;;;4.32;;
43014;SDS011;28637;50.554;7.032;2023-05-24T23:19:10;10.57;;;4.53;;
43014;SDS011;28637;50.554;7.032;2023-05-24T23:24:12;12.55;;;4.30;;
43014;SDS011;28637;50.554;7.032;2023-05-24T23:29:14;9.25;;;4.00;;
43014;SDS011;28637;50.554;7.032;2023-05-24T23:34:15;6.90;;;4.10;;
43014;SDS011;28637;50.554;7.032;2023-05-24T23:39:16;9.57;;;4.20;;
43014;SDS011;28637;50.554;7.032;2023-05-24T23:44:16;9.13;;;4.20;;
43014;SDS011;28637;50.554;7.032;2023-05-24T23:49:17;7.90;;;3.67;;
43014;SDS011;28637;50.554;7.032;2023-05-24T23:54:19;9.13;;;4.18;;
43014;SDS011;28637;50.554;7.032;2023-05-24T23:59:19;8.85;;;4.40;;
